1PS9 weather

Public forecast

Using degrees Fahrenheit for public forecast. Weather courtesy of forecast.io.

Closest aviation weather report (METAR) to Wicker & Wings Aerodrome

Closest report is Quakertown Airport, 2.0 nm (3.7 km) NNW. Retrieved 2020/08/12 23:15 UTC (31 seconds ago):

KUKT 122315Z AUTO 00000KT 10SM CLR 28/22 A3005 RMK A01

Closest aviation forecast (TAF) to Wicker & Wings Aerodrome

Closest forecast is Lehigh Valley International Airport, 15.3 nm (28.3 km) NNW. Retrieved 2020/08/12 18:30 UTC (5 hours ago):

TAF KABE 121727Z 1218/1318 VRB03KT P6SM SCT040 BKN150 FM130700 VRB02KT P6SM BKN040 TEMPO 1309/1312 5SM BR FM131200 VRB03KT P6SM VCSH BKN040